sensor_id;sensor_type;location;lat;lon;timestamp;P1;durP1;ratioP1;P2;durP2;ratioP2
17510;SDS011;8873;48.818;9.422;2023-07-13T00:02:00;1.73;;;1.63;;
17510;SDS011;8873;48.818;9.422;2023-07-13T00:04:28;1.65;;;1.65;;
17510;SDS011;8873;48.818;9.422;2023-07-13T00:06:59;2.15;;;1.58;;
17510;SDS011;8873;48.818;9.422;2023-07-13T00:09:26;1.77;;;1.65;;
17510;SDS011;8873;48.818;9.422;2023-07-13T00:11:55;1.92;;;1.65;;
17510;SDS011;8873;48.818;9.422;2023-07-13T00:14:25;2.30;;;1.67;;
17510;SDS011;8873;48.818;9.422;2023-07-13T00:16:53;3.40;;;1.50;;
17510;SDS011;8873;48.818;9.422;2023-07-13T00:19:21;1.83;;;1.75;;
17510;SDS011;8873;48.818;9.422;2023-07-13T00:21:49;2.47;;;1.50;;
17510;SDS011;8873;48.818;9.422;2023-07-13T00:24:17;2.05;;;1.77;;
17510;SDS011;8873;48.818;9.422;2023-07-13T00:26:50;2.70;;;1.58;;
17510;SDS011;8873;48.818;9.422;2023-07-13T00:29:18;1.73;;;1.40;;
17510;SDS011;8873;48.818;9.422;2023-07-13T00:31:50;4.25;;;1.85;;
17510;SDS011;8873;48.818;9.422;2023-07-13T00:34:17;4.68;;;1.70;;
17510;SDS011;8873;48.818;9.422;2023-07-13T00:36:45;1.95;;;1.48;;
17510;SDS011;8873;48.818;9.422;2023-07-13T00:39:12;1.55;;;1.35;;
17510;SDS011;8873;48.818;9.422;2023-07-13T00:41:40;1.60;;;1.50;;
17510;SDS011;8873;48.818;9.422;2023-07-13T00:44:09;1.60;;;1.50;;
17510;SDS011;8873;48.818;9.422;2023-07-13T00:46:38;2.78;;;1.60;;
17510;SDS011;8873;48.818;9.422;2023-07-13T00:49:13;2.28;;;1.77;;
17510;SDS011;8873;48.818;9.422;2023-07-13T00:51:43;4.05;;;1.40;;
17510;SDS011;8873;48.818;9.422;2023-07-13T00:54:12;1.73;;;1.63;;
17510;SDS011;8873;48.818;9.422;2023-07-13T00:56:41;1.83;;;1.73;;
17510;SDS011;8873;48.818;9.422;2023-07-13T00:59:13;1.52;;;1.42;;
17510;SDS011;8873;48.818;9.422;2023-07-13T01:01:41;1.85;;;1.50;;
17510;SDS011;8873;48.818;9.422;2023-07-13T01:04:11;3.30;;;1.40;;
17510;SDS011;8873;48.818;9.422;2023-07-13T01:06:39;2.60;;;1.33;;
17510;SDS011;8873;48.818;9.422;2023-07-13T01:09:08;1.67;;;1.58;;
17510;SDS011;8873;48.818;9.422;2023-07-13T01:11:36;2.95;;;1.55;;
17510;SDS011;8873;48.818;9.422;2023-07-13T01:14:05;1.88;;;1.58;;
17510;SDS011;8873;48.818;9.422;2023-07-13T01:16:33;4.50;;;1.92;;
17510;SDS011;8873;48.818;9.422;2023-07-13T01:19:01;2.22;;;1.55;;
17510;SDS011;8873;48.818;9.422;2023-07-13T01:21:32;1.70;;;1.48;;
17510;SDS011;8873;48.818;9.422;2023-07-13T01:24:01;1.48;;;1.38;;
17510;SDS011;8873;48.818;9.422;2023-07-13T01:26:28;1.98;;;1.60;;
17510;SDS011;8873;48.818;9.422;2023-07-13T01:28:56;2.20;;;1.77;;
17510;SDS011;8873;48.818;9.422;2023-07-13T01:31:24;1.55;;;1.45;;
17510;SDS011;8873;48.818;9.422;2023-07-13T01:33:52;1.70;;;1.60;;
17510;SDS011;8873;48.818;9.422;2023-07-13T01:36:19;3.67;;;1.80;;
17510;SDS011;8873;48.818;9.422;2023-07-13T01:38:49;4.10;;;1.80;;
17510;SDS011;8873;48.818;9.422;2023-07-13T01:41:20;1.92;;;1.80;;
17510;SDS011;8873;48.818;9.422;2023-07-13T01:43:49;1.48;;;1.45;;
17510;SDS011;8873;48.818;9.422;2023-07-13T01:46:16;1.80;;;1.70;;
17510;SDS011;8873;48.818;9.422;2023-07-13T01:48:49;1.80;;;1.70;;
17510;SDS011;8873;48.818;9.422;2023-07-13T01:51:19;3.28;;;1.55;;
17510;SDS011;8873;48.818;9.422;2023-07-13T01:53:46;1.77;;;1.67;;
17510;SDS011;8873;48.818;9.422;2023-07-13T01:56:17;1.88;;;1.77;;
17510;SDS011;8873;48.818;9.422;2023-07-13T01:58:45;3.30;;;1.60;;
17510;SDS011;8873;48.818;9.422;2023-07-13T02:01:13;3.20;;;1.60;;
17510;SDS011;8873;48.818;9.422;2023-07-13T02:03:41;4.32;;;1.48;;
17510;SDS011;8873;48.818;9.422;2023-07-13T02:06:10;1.50;;;1.40;;
17510;SDS011;8873;48.818;9.422;2023-07-13T02:08:39;2.63;;;1.60;;
17510;SDS011;8873;48.818;9.422;2023-07-13T02:11:08;2.25;;;1.80;;
17510;SDS011;8873;48.818;9.422;2023-07-13T02:13:37;3.00;;;1.92;;
17510;SDS011;8873;48.818;9.422;2023-07-13T02:16:04;2.42;;;1.95;;
17510;SDS011;8873;48.818;9.422;2023-07-13T02:18:37;4.00;;;1.85;;
17510;SDS011;8873;48.818;9.422;2023-07-13T02:21:05;3.53;;;1.90;;
17510;SDS011;8873;48.818;9.422;2023-07-13T02:23:33;3.03;;;1.80;;
17510;SDS011;8873;48.818;9.422;2023-07-13T02:26:01;3.65;;;2.15;;
17510;SDS011;8873;48.818;9.422;2023-07-13T02:28:32;1.95;;;1.80;;
17510;SDS011;8873;48.818;9.422;2023-07-13T02:31:07;3.20;;;2.42;;
17510;SDS011;8873;48.818;9.422;2023-07-13T02:33:35;4.63;;;1.80;;
17510;SDS011;8873;48.818;9.422;2023-07-13T02:36:05;1.48;;;1.48;;
17510;SDS011;8873;48.818;9.422;2023-07-13T02:38:37;4.35;;;1.77;;
17510;SDS011;8873;48.818;9.422;2023-07-13T02:41:05;1.98;;;1.77;;
17510;SDS011;8873;48.818;9.422;2023-07-13T02:43:33;1.95;;;1.85;;
17510;SDS011;8873;48.818;9.422;2023-07-13T02:46:01;2.92;;;2.03;;
17510;SDS011;8873;48.818;9.422;2023-07-13T02:48:35;1.95;;;1.85;;
17510;SDS011;8873;48.818;9.422;2023-07-13T02:51:06;1.98;;;1.73;;
17510;SDS011;8873;48.818;9.422;2023-07-13T02:53:37;4.97;;;1.92;;
17510;SDS011;8873;48.818;9.422;2023-07-13T02:56:05;1.73;;;1.63;;
17510;SDS011;8873;48.818;9.422;2023-07-13T02:58:34;1.70;;;1.60;;
17510;SDS011;8873;48.818;9.422;2023-07-13T03:01:06;1.98;;;1.88;;
17510;SDS011;8873;48.818;9.422;2023-07-13T03:03:35;2.63;;;1.63;;
17510;SDS011;8873;48.818;9.422;2023-07-13T03:06:03;2.83;;;1.48;;
17510;SDS011;8873;48.818;9.422;2023-07-13T03:08:35;4.53;;;2.20;;
17510;SDS011;8873;48.818;9.422;2023-07-13T03:11:04;5.15;;;2.08;;
17510;SDS011;8873;48.818;9.422;2023-07-13T03:13:32;2.40;;;2.20;;
17510;SDS011;8873;48.818;9.422;2023-07-13T03:16:01;2.40;;;2.20;;
17510;SDS011;8873;48.818;9.422;2023-07-13T03:18:29;5.97;;;1.80;;
17510;SDS011;8873;48.818;9.422;2023-07-13T03:21:03;1.83;;;1.70;;
17510;SDS011;8873;48.818;9.422;2023-07-13T03:23:32;1.60;;;1.60;;
17510;SDS011;8873;48.818;9.422;2023-07-13T03:26:04;5.60;;;1.90;;
17510;SDS011;8873;48.818;9.422;2023-07-13T03:28:32;2.22;;;1.98;;
17510;SDS011;8873;48.818;9.422;2023-07-13T03:31:02;4.00;;;1.90;;
17510;SDS011;8873;48.818;9.422;2023-07-13T03:33:30;2.58;;;2.17;;
17510;SDS011;8873;48.818;9.422;2023-07-13T03:36:03;2.53;;;2.08;;
17510;SDS011;8873;48.818;9.422;2023-07-13T03:38:32;1.90;;;1.80;;
17510;SDS011;8873;48.818;9.422;2023-07-13T03:41:00;3.58;;;1.90;;
17510;SDS011;8873;48.818;9.422;2023-07-13T03:43:28;2.25;;;1.70;;
17510;SDS011;8873;48.818;9.422;2023-07-13T03:45:56;5.43;;;2.45;;
17510;SDS011;8873;48.818;9.422;2023-07-13T03:48:24;5.22;;;2.00;;
17510;SDS011;8873;48.818;9.422;2023-07-13T03:50:52;4.05;;;2.10;;
17510;SDS011;8873;48.818;9.422;2023-07-13T03:53:24;2.13;;;1.98;;
17510;SDS011;8873;48.818;9.422;2023-07-13T03:55:52;3.80;;;1.98;;
17510;SDS011;8873;48.818;9.422;2023-07-13T03:58:29;1.58;;;1.58;;
17510;SDS011;8873;48.818;9.422;2023-07-13T04:00:58;1.98;;;1.88;;
17510;SDS011;8873;48.818;9.422;2023-07-13T04:03:26;5.25;;;2.00;;
17510;SDS011;8873;48.818;9.422;2023-07-13T04:05:55;2.55;;;2.28;;
17510;SDS011;8873;48.818;9.422;2023-07-13T04:08:30;3.67;;;2.10;;
17510;SDS011;8873;48.818;9.422;2023-07-13T04:10:59;6.38;;;3.05;;
17510;SDS011;8873;48.818;9.422;2023-07-13T04:13:28;3.95;;;2.80;;
17510;SDS011;8873;48.818;9.422;2023-07-13T04:15:58;2.17;;;2.08;;
17510;SDS011;8873;48.818;9.422;2023-07-13T04:18:29;3.33;;;2.30;;
17510;SDS011;8873;48.818;9.422;2023-07-13T04:20:58;2.45;;;2.25;;
17510;SDS011;8873;48.818;9.422;2023-07-13T04:23:27;2.67;;;1.92;;
17510;SDS011;8873;48.818;9.422;2023-07-13T04:25:56;2.17;;;1.98;;
17510;SDS011;8873;48.818;9.422;2023-07-13T04:28:24;2.30;;;2.08;;
17510;SDS011;8873;48.818;9.422;2023-07-13T04:30:52;2.83;;;2.13;;
17510;SDS011;8873;48.818;9.422;2023-07-13T04:33:20;3.78;;;2.30;;
17510;SDS011;8873;48.818;9.422;2023-07-13T04:35:48;4.95;;;2.25;;
17510;SDS011;8873;48.818;9.422;2023-07-13T04:38:16;3.30;;;1.98;;
17510;SDS011;8873;48.818;9.422;2023-07-13T04:40:44;1.92;;;1.83;;
17510;SDS011;8873;48.818;9.422;2023-07-13T04:43:14;2.30;;;2.10;;
17510;SDS011;8873;48.818;9.422;2023-07-13T04:45:42;2.08;;;1.95;;
17510;SDS011;8873;48.818;9.422;2023-07-13T04:48:10;3.00;;;2.22;;
17510;SDS011;8873;48.818;9.422;2023-07-13T04:50:37;3.55;;;2.55;;
17510;SDS011;8873;48.818;9.422;2023-07-13T04:53:05;2.03;;;1.92;;
17510;SDS011;8873;48.818;9.422;2023-07-13T04:55:33;3.05;;;2.00;;
17510;SDS011;8873;48.818;9.422;2023-07-13T04:58:01;2.72;;;2.20;;
17510;SDS011;8873;48.818;9.422;2023-07-13T05:00:33;3.53;;;2.10;;
17510;SDS011;8873;48.818;9.422;2023-07-13T05:03:00;2.28;;;1.88;;
17510;SDS011;8873;48.818;9.422;2023-07-13T05:05:28;2.08;;;1.88;;
17510;SDS011;8873;48.818;9.422;2023-07-13T05:07:56;2.45;;;1.80;;
17510;SDS011;8873;48.818;9.422;2023-07-13T05:10:24;2.05;;;1.70;;
17510;SDS011;8873;48.818;9.422;2023-07-13T05:12:51;2.13;;;1.70;;
17510;SDS011;8873;48.818;9.422;2023-07-13T05:15:20;2.10;;;1.80;;
17510;SDS011;8873;48.818;9.422;2023-07-13T05:17:49;2.63;;;2.00;;
17510;SDS011;8873;48.818;9.422;2023-07-13T05:20:18;2.15;;;1.95;;
17510;SDS011;8873;48.818;9.422;2023-07-13T05:22:45;6.05;;;2.25;;
17510;SDS011;8873;48.818;9.422;2023-07-13T05:25:13;4.07;;;2.40;;
17510;SDS011;8873;48.818;9.422;2023-07-13T05:27:44;2.47;;;2.03;;
17510;SDS011;8873;48.818;9.422;2023-07-13T05:30:13;2.00;;;1.90;;
17510;SDS011;8873;48.818;9.422;2023-07-13T05:32:41;1.90;;;1.80;;
17510;SDS011;8873;48.818;9.422;2023-07-13T05:35:10;3.17;;;1.90;;
17510;SDS011;8873;48.818;9.422;2023-07-13T05:37:38;9.52;;;2.08;;
17510;SDS011;8873;48.818;9.422;2023-07-13T05:40:09;3.28;;;2.00;;
17510;SDS011;8873;48.818;9.422;2023-07-13T05:42:42;2.38;;;2.17;;
17510;SDS011;8873;48.818;9.422;2023-07-13T05:45:10;3.55;;;2.28;;
17510;SDS011;8873;48.818;9.422;2023-07-13T05:47:37;2.42;;;2.20;;
17510;SDS011;8873;48.818;9.422;2023-07-13T05:50:05;4.70;;;2.30;;
17510;SDS011;8873;48.818;9.422;2023-07-13T05:52:36;5.25;;;2.30;;
17510;SDS011;8873;48.818;9.422;2023-07-13T05:55:05;6.82;;;2.08;;
17510;SDS011;8873;48.818;9.422;2023-07-13T05:57:33;3.45;;;2.08;;
17510;SDS011;8873;48.818;9.422;2023-07-13T06:00:01;2.50;;;2.30;;
17510;SDS011;8873;48.818;9.422;2023-07-13T06:02:28;5.75;;;2.30;;
17510;SDS011;8873;48.818;9.422;2023-07-13T06:04:56;3.78;;;1.90;;
17510;SDS011;8873;48.818;9.422;2023-07-13T06:07:24;4.65;;;2.10;;
17510;SDS011;8873;48.818;9.422;2023-07-13T06:09:53;6.05;;;2.20;;
17510;SDS011;8873;48.818;9.422;2023-07-13T06:12:21;6.13;;;2.20;;
17510;SDS011;8873;48.818;9.422;2023-07-13T06:14:49;4.75;;;2.30;;
17510;SDS011;8873;48.818;9.422;2023-07-13T06:17:16;8.52;;;2.08;;
17510;SDS011;8873;48.818;9.422;2023-07-13T06:19:44;28.33;;;2.35;;
17510;SDS011;8873;48.818;9.422;2023-07-13T06:22:14;4.25;;;2.00;;
17510;SDS011;8873;48.818;9.422;2023-07-13T06:24:42;4.70;;;2.17;;
17510;SDS011;8873;48.818;9.422;2023-07-13T06:27:11;3.97;;;2.33;;
17510;SDS011;8873;48.818;9.422;2023-07-13T06:29:39;2.67;;;2.20;;
17510;SDS011;8873;48.818;9.422;2023-07-13T06:32:07;2.92;;;2.53;;
17510;SDS011;8873;48.818;9.422;2023-07-13T06:34:35;2.67;;;2.28;;
17510;SDS011;8873;48.818;9.422;2023-07-13T06:37:07;4.00;;;2.03;;
17510;SDS011;8873;48.818;9.422;2023-07-13T06:39:35;6.47;;;2.47;;
17510;SDS011;8873;48.818;9.422;2023-07-13T06:42:02;6.80;;;2.55;;
17510;SDS011;8873;48.818;9.422;2023-07-13T06:44:32;3.83;;;2.03;;
17510;SDS011;8873;48.818;9.422;2023-07-13T06:46:59;1.98;;;1.85;;
17510;SDS011;8873;48.818;9.422;2023-07-13T06:49:27;2.65;;;2.17;;
17510;SDS011;8873;48.818;9.422;2023-07-13T06:51:55;2.13;;;1.92;;
17510;SDS011;8873;48.818;9.422;2023-07-13T06:54:22;5.55;;;2.30;;
17510;SDS011;8873;48.818;9.422;2023-07-13T06:56:50;4.60;;;2.35;;
17510;SDS011;8873;48.818;9.422;2023-07-13T06:59:18;4.40;;;2.25;;
17510;SDS011;8873;48.818;9.422;2023-07-13T07:01:56;3.55;;;2.20;;
17510;SDS011;8873;48.818;9.422;2023-07-13T07:04:26;4.00;;;2.10;;
17510;SDS011;8873;48.818;9.422;2023-07-13T07:06:54;2.63;;;2.10;;
17510;SDS011;8873;48.818;9.422;2023-07-13T07:09:25;2.25;;;2.05;;
17510;SDS011;8873;48.818;9.422;2023-07-13T07:11:52;4.57;;;2.20;;
17510;SDS011;8873;48.818;9.422;2023-07-13T07:14:29;3.17;;;2.05;;
17510;SDS011;8873;48.818;9.422;2023-07-13T07:16:59;2.60;;;2.38;;
17510;SDS011;8873;48.818;9.422;2023-07-13T07:19:27;2.63;;;2.03;;
17510;SDS011;8873;48.818;9.422;2023-07-13T07:21:55;2.20;;;1.70;;
17510;SDS011;8873;48.818;9.422;2023-07-13T07:24:25;2.47;;;2.00;;
17510;SDS011;8873;48.818;9.422;2023-07-13T07:26:53;9.55;;;2.22;;
17510;SDS011;8873;48.818;9.422;2023-07-13T07:29:23;3.75;;;1.90;;
17510;SDS011;8873;48.818;9.422;2023-07-13T07:31:56;2.03;;;1.80;;
17510;SDS011;8873;48.818;9.422;2023-07-13T07:34:33;4.68;;;2.22;;
17510;SDS011;8873;48.818;9.422;2023-07-13T07:37:01;2.75;;;1.55;;
17510;SDS011;8873;48.818;9.422;2023-07-13T07:39:32;2.17;;;1.90;;
17510;SDS011;8873;48.818;9.422;2023-07-13T07:41:59;2.35;;;1.75;;
17510;SDS011;8873;48.818;9.422;2023-07-13T07:44:27;3.10;;;2.00;;
17510;SDS011;8873;48.818;9.422;2023-07-13T07:46:55;1.70;;;1.60;;
17510;SDS011;8873;48.818;9.422;2023-07-13T07:49:23;2.53;;;1.67;;
17510;SDS011;8873;48.818;9.422;2023-07-13T07:51:52;2.03;;;1.92;;
17510;SDS011;8873;48.818;9.422;2023-07-13T07:54:20;2.53;;;1.52;;
17510;SDS011;8873;48.818;9.422;2023-07-13T07:57:08;1.42;;;1.33;;
17510;SDS011;8873;48.818;9.422;2023-07-13T07:59:38;1.45;;;1.45;;
17510;SDS011;8873;48.818;9.422;2023-07-13T08:02:09;1.58;;;1.27;;
17510;SDS011;8873;48.818;9.422;2023-07-13T08:04:57;1.80;;;1.30;;
17510;SDS011;8873;48.818;9.422;2023-07-13T08:07:31;3.15;;;1.27;;
17510;SDS011;8873;48.818;9.422;2023-07-13T08:09:58;1.20;;;1.20;;
17510;SDS011;8873;48.818;9.422;2023-07-13T08:12:26;1.13;;;1.13;;
17510;SDS011;8873;48.818;9.422;2023-07-13T08:14:57;2.78;;;1.90;;
17510;SDS011;8873;48.818;9.422;2023-07-13T08:17:27;1.88;;;1.60;;
17510;SDS011;8873;48.818;9.422;2023-07-13T08:19:54;1.83;;;1.50;;
17510;SDS011;8873;48.818;9.422;2023-07-13T08:22:24;7.05;;;1.30;;
17510;SDS011;8873;48.818;9.422;2023-07-13T08:24:55;2.38;;;1.40;;
17510;SDS011;8873;48.818;9.422;2023-07-13T08:27:27;1.17;;;1.17;;
17510;SDS011;8873;48.818;9.422;2023-07-13T08:29:59;2.28;;;1.40;;
17510;SDS011;8873;48.818;9.422;2023-07-13T08:32:27;1.42;;;1.30;;
17510;SDS011;8873;48.818;9.422;2023-07-13T08:34:55;1.48;;;1.38;;
17510;SDS011;8873;48.818;9.422;2023-07-13T08:37:22;2.72;;;1.30;;
17510;SDS011;8873;48.818;9.422;2023-07-13T08:39:50;1.80;;;1.60;;
17510;SDS011;8873;48.818;9.422;2023-07-13T08:42:22;2.97;;;1.50;;
17510;SDS011;8873;48.818;9.422;2023-07-13T08:44:57;2.55;;;1.50;;
17510;SDS011;8873;48.818;9.422;2023-07-13T08:47:29;2.45;;;1.40;;
17510;SDS011;8873;48.818;9.422;2023-07-13T08:49:59;4.90;;;1.58;;
17510;SDS011;8873;48.818;9.422;2023-07-13T08:52:29;3.97;;;1.42;;
17510;SDS011;8873;48.818;9.422;2023-07-13T08:54:58;1.63;;;1.35;;
17510;SDS011;8873;48.818;9.422;2023-07-13T08:57:33;1.70;;;1.55;;
17510;SDS011;8873;48.818;9.422;2023-07-13T09:00:02;3.38;;;1.20;;
17510;SDS011;8873;48.818;9.422;2023-07-13T09:02:34;3.28;;;1.70;;
17510;SDS011;8873;48.818;9.422;2023-07-13T09:05:09;2.15;;;1.80;;
17510;SDS011;8873;48.818;9.422;2023-07-13T09:07:40;3.95;;;1.58;;
17510;SDS011;8873;48.818;9.422;2023-07-13T09:10:12;3.60;;;1.40;;
17510;SDS011;8873;48.818;9.422;2023-07-13T09:12:46;2.67;;;1.63;;
17510;SDS011;8873;48.818;9.422;2023-07-13T09:15:24;1.70;;;1.30;;
17510;SDS011;8873;48.818;9.422;2023-07-13T09:17:53;1.70;;;1.30;;
17510;SDS011;8873;48.818;9.422;2023-07-13T09:20:25;3.78;;;1.80;;
17510;SDS011;8873;48.818;9.422;2023-07-13T09:22:55;4.07;;;1.50;;
17510;SDS011;8873;48.818;9.422;2023-07-13T09:25:26;1.83;;;1.50;;
17510;SDS011;8873;48.818;9.422;2023-07-13T09:27:56;1.80;;;1.70;;
17510;SDS011;8873;48.818;9.422;2023-07-13T09:30:25;1.83;;;1.40;;
17510;SDS011;8873;48.818;9.422;2023-07-13T09:32:54;2.17;;;1.70;;
17510;SDS011;8873;48.818;9.422;2023-07-13T09:35:25;2.67;;;1.45;;
17510;SDS011;8873;48.818;9.422;2023-07-13T09:37:57;2.22;;;1.42;;
17510;SDS011;8873;48.818;9.422;2023-07-13T09:40:30;5.60;;;1.40;;
17510;SDS011;8873;48.818;9.422;2023-07-13T09:43:04;1.52;;;1.40;;
17510;SDS011;8873;48.818;9.422;2023-07-13T09:45:33;1.20;;;1.20;;
17510;SDS011;8873;48.818;9.422;2023-07-13T09:48:04;1.25;;;1.20;;
17510;SDS011;8873;48.818;9.422;2023-07-13T09:50:32;1.65;;;1.25;;
17510;SDS011;8873;48.818;9.422;2023-07-13T09:53:00;2.22;;;1.50;;
17510;SDS011;8873;48.818;9.422;2023-07-13T09:55:29;3.03;;;1.60;;
17510;SDS011;8873;48.818;9.422;2023-07-13T09:57:57;1.40;;;1.40;;
17510;SDS011;8873;48.818;9.422;2023-07-13T10:00:29;1.33;;;1.33;;
17510;SDS011;8873;48.818;9.422;2023-07-13T10:03:04;5.93;;;1.90;;
17510;SDS011;8873;48.818;9.422;2023-07-13T10:05:38;4.13;;;1.60;;
17510;SDS011;8873;48.818;9.422;2023-07-13T10:08:15;1.70;;;1.55;;
17510;SDS011;8873;48.818;9.422;2023-07-13T10:10:42;1.60;;;1.50;;
17510;SDS011;8873;48.818;9.422;2023-07-13T10:13:21;4.75;;;1.73;;
17510;SDS011;8873;48.818;9.422;2023-07-13T10:15:53;1.50;;;1.40;;
17510;SDS011;8873;48.818;9.422;2023-07-13T10:18:21;1.50;;;1.40;;
17510;SDS011;8873;48.818;9.422;2023-07-13T10:20:50;3.25;;;1.40;;
17510;SDS011;8873;48.818;9.422;2023-07-13T10:23:21;5.13;;;1.33;;
17510;SDS011;8873;48.818;9.422;2023-07-13T10:25:51;1.67;;;1.58;;
17510;SDS011;8873;48.818;9.422;2023-07-13T10:28:23;1.95;;;1.50;;
17510;SDS011;8873;48.818;9.422;2023-07-13T10:30:58;1.52;;;1.42;;
17510;SDS011;8873;48.818;9.422;2023-07-13T10:33:35;5.40;;;1.90;;
17510;SDS011;8873;48.818;9.422;2023-07-13T10:36:12;2.90;;;1.70;;
17510;SDS011;8873;48.818;9.422;2023-07-13T10:38:47;3.00;;;1.50;;
17510;SDS011;8873;48.818;9.422;2023-07-13T10:41:19;1.83;;;1.55;;
17510;SDS011;8873;48.818;9.422;2023-07-13T10:43:49;2.80;;;1.67;;
17510;SDS011;8873;48.818;9.422;2023-07-13T10:46:19;1.50;;;1.40;;
17510;SDS011;8873;48.818;9.422;2023-07-13T10:48:49;2.95;;;1.75;;
17510;SDS011;8873;48.818;9.422;2023-07-13T10:51:18;1.60;;;1.50;;
17510;SDS011;8873;48.818;9.422;2023-07-13T10:56:32;2.55;;;1.50;;
17510;SDS011;8873;48.818;9.422;2023-07-13T10:59:01;2.08;;;1.70;;
17510;SDS011;8873;48.818;9.422;2023-07-13T11:01:46;4.97;;;1.50;;
17510;SDS011;8873;48.818;9.422;2023-07-13T11:04:16;1.42;;;1.33;;
17510;SDS011;8873;48.818;9.422;2023-07-13T11:06:47;1.95;;;1.45;;
17510;SDS011;8873;48.818;9.422;2023-07-13T11:12:06;3.50;;;1.33;;
17510;SDS011;8873;48.818;9.422;2023-07-13T11:14:41;2.88;;;1.60;;
17510;SDS011;8873;48.818;9.422;2023-07-13T11:19:54;1.70;;;1.50;;
17510;SDS011;8873;48.818;9.422;2023-07-13T11:22:41;1.40;;;1.30;;
17510;SDS011;8873;48.818;9.422;2023-07-13T11:25:28;2.83;;;1.77;;
17510;SDS011;8873;48.818;9.422;2023-07-13T11:28:13;1.30;;;1.30;;
17510;SDS011;8873;48.818;9.422;2023-07-13T11:30:42;2.90;;;1.30;;
17510;SDS011;8873;48.818;9.422;2023-07-13T11:33:15;3.72;;;1.50;;
17510;SDS011;8873;48.818;9.422;2023-07-13T11:35:49;1.20;;;1.20;;
17510;SDS011;8873;48.818;9.422;2023-07-13T11:38:30;1.50;;;1.40;;
17510;SDS011;8873;48.818;9.422;2023-07-13T11:41:00;1.38;;;1.30;;
17510;SDS011;8873;48.818;9.422;2023-07-13T11:43:31;2.03;;;1.20;;
17510;SDS011;8873;48.818;9.422;2023-07-13T11:46:12;1.80;;;1.50;;
17510;SDS011;8873;48.818;9.422;2023-07-13T11:48:41;4.43;;;1.63;;
17510;SDS011;8873;48.818;9.422;2023-07-13T11:51:15;4.68;;;1.50;;
17510;SDS011;8873;48.818;9.422;2023-07-13T11:53:45;1.92;;;1.50;;
17510;SDS011;8873;48.818;9.422;2023-07-13T11:56:14;1.52;;;1.40;;
17510;SDS011;8873;48.818;9.422;2023-07-13T11:58:42;1.58;;;1.48;;
17510;SDS011;8873;48.818;9.422;2023-07-13T12:01:15;1.88;;;1.35;;
17510;SDS011;8873;48.818;9.422;2023-07-13T12:03:44;3.30;;;1.58;;
17510;SDS011;8873;48.818;9.422;2023-07-13T12:06:23;4.28;;;1.55;;
17510;SDS011;8873;48.818;9.422;2023-07-13T12:08:51;1.67;;;1.40;;
17510;SDS011;8873;48.818;9.422;2023-07-13T12:11:19;2.22;;;1.45;;
17510;SDS011;8873;48.818;9.422;2023-07-13T12:13:48;1.85;;;1.42;;
17510;SDS011;8873;48.818;9.422;2023-07-13T12:16:18;2.20;;;1.35;;
17510;SDS011;8873;48.818;9.422;2023-07-13T12:18:48;1.77;;;1.33;;
17510;SDS011;8873;48.818;9.422;2023-07-13T12:21:17;3.67;;;1.63;;
17510;SDS011;8873;48.818;9.422;2023-07-13T12:23:48;1.95;;;1.88;;
17510;SDS011;8873;48.818;9.422;2023-07-13T12:26:17;2.58;;;1.42;;
17510;SDS011;8873;48.818;9.422;2023-07-13T12:28:46;2.13;;;1.48;;
17510;SDS011;8873;48.818;9.422;2023-07-13T12:31:22;2.42;;;1.50;;
17510;SDS011;8873;48.818;9.422;2023-07-13T12:33:55;1.77;;;1.52;;
17510;SDS011;8873;48.818;9.422;2023-07-13T12:36:24;1.42;;;1.33;;
17510;SDS011;8873;48.818;9.422;2023-07-13T12:38:53;1.50;;;1.40;;
17510;SDS011;8873;48.818;9.422;2023-07-13T12:41:21;2.85;;;1.40;;
17510;SDS011;8873;48.818;9.422;2023-07-13T12:43:49;1.60;;;1.50;;
17510;SDS011;8873;48.818;9.422;2023-07-13T12:46:17;6.70;;;1.95;;
17510;SDS011;8873;48.818;9.422;2023-07-13T12:48:48;3.05;;;1.48;;
17510;SDS011;8873;48.818;9.422;2023-07-13T12:51:33;1.77;;;1.60;;
17510;SDS011;8873;48.818;9.422;2023-07-13T12:54:10;2.17;;;1.60;;
17510;SDS011;8873;48.818;9.422;2023-07-13T12:56:40;2.15;;;1.45;;
17510;SDS011;8873;48.818;9.422;2023-07-13T12:59:09;1.85;;;1.75;;
17510;SDS011;8873;48.818;9.422;2023-07-13T13:01:43;4.72;;;1.50;;
17510;SDS011;8873;48.818;9.422;2023-07-13T13:04:10;2.00;;;1.73;;
17510;SDS011;8873;48.818;9.422;2023-07-13T13:06:39;2.03;;;1.60;;
17510;SDS011;8873;48.818;9.422;2023-07-13T13:09:12;3.15;;;1.75;;
17510;SDS011;8873;48.818;9.422;2023-07-13T13:11:39;3.17;;;2.63;;
17510;SDS011;8873;48.818;9.422;2023-07-13T13:14:07;1.85;;;1.60;;
17510;SDS011;8873;48.818;9.422;2023-07-13T13:16:37;1.85;;;1.70;;
17510;SDS011;8873;48.818;9.422;2023-07-13T13:19:12;2.25;;;1.75;;
17510;SDS011;8873;48.818;9.422;2023-07-13T13:21:42;1.23;;;1.20;;
17510;SDS011;8873;48.818;9.422;2023-07-13T13:24:13;2.83;;;1.60;;
17510;SDS011;8873;48.818;9.422;2023-07-13T13:26:41;1.60;;;1.50;;
17510;SDS011;8873;48.818;9.422;2023-07-13T13:29:11;2.00;;;1.45;;
17510;SDS011;8873;48.818;9.422;2023-07-13T13:31:40;2.45;;;1.60;;
17510;SDS011;8873;48.818;9.422;2023-07-13T13:34:09;5.57;;;1.42;;
17510;SDS011;8873;48.818;9.422;2023-07-13T13:36:38;3.42;;;1.80;;
17510;SDS011;8873;48.818;9.422;2023-07-13T13:39:10;2.80;;;1.42;;
17510;SDS011;8873;48.818;9.422;2023-07-13T13:41:44;1.42;;;1.35;;
17510;SDS011;8873;48.818;9.422;2023-07-13T13:44:13;1.70;;;1.35;;
17510;SDS011;8873;48.818;9.422;2023-07-13T13:46:41;1.73;;;1.63;;
17510;SDS011;8873;48.818;9.422;2023-07-13T13:49:15;1.60;;;1.50;;
17510;SDS011;8873;48.818;9.422;2023-07-13T13:51:43;1.50;;;1.40;;
17510;SDS011;8873;48.818;9.422;2023-07-13T13:54:12;4.20;;;1.60;;
17510;SDS011;8873;48.818;9.422;2023-07-13T13:56:41;1.85;;;1.55;;
17510;SDS011;8873;48.818;9.422;2023-07-13T13:59:10;2.17;;;1.70;;
17510;SDS011;8873;48.818;9.422;2023-07-13T14:01:38;3.58;;;1.80;;
17510;SDS011;8873;48.818;9.422;2023-07-13T14:04:06;1.40;;;1.40;;
17510;SDS011;8873;48.818;9.422;2023-07-13T14:06:36;1.60;;;1.50;;
17510;SDS011;8873;48.818;9.422;2023-07-13T14:09:08;2.42;;;1.70;;
17510;SDS011;8873;48.818;9.422;2023-07-13T14:11:36;4.22;;;1.67;;
17510;SDS011;8873;48.818;9.422;2023-07-13T14:14:04;2.83;;;1.60;;
17510;SDS011;8873;48.818;9.422;2023-07-13T14:16:33;2.20;;;1.88;;
17510;SDS011;8873;48.818;9.422;2023-07-13T14:19:01;2.30;;;1.75;;
17510;SDS011;8873;48.818;9.422;2023-07-13T14:21:29;2.55;;;1.80;;
17510;SDS011;8873;48.818;9.422;2023-07-13T14:23:57;3.78;;;1.75;;
17510;SDS011;8873;48.818;9.422;2023-07-13T14:26:27;2.00;;;1.50;;
17510;SDS011;8873;48.818;9.422;2023-07-13T14:28:58;1.73;;;1.63;;
17510;SDS011;8873;48.818;9.422;2023-07-13T14:31:28;2.45;;;1.40;;
17510;SDS011;8873;48.818;9.422;2023-07-13T14:34:00;3.00;;;1.60;;
17510;SDS011;8873;48.818;9.422;2023-07-13T14:36:32;3.53;;;1.42;;
17510;SDS011;8873;48.818;9.422;2023-07-13T14:39:12;1.98;;;1.63;;
17510;SDS011;8873;48.818;9.422;2023-07-13T14:41:40;2.55;;;1.60;;
17510;SDS011;8873;48.818;9.422;2023-07-13T14:44:13;1.70;;;1.42;;
17510;SDS011;8873;48.818;9.422;2023-07-13T14:46:44;3.95;;;1.58;;
17510;SDS011;8873;48.818;9.422;2023-07-13T14:49:16;2.38;;;2.17;;
17510;SDS011;8873;48.818;9.422;2023-07-13T14:51:52;1.77;;;1.50;;
17510;SDS011;8873;48.818;9.422;2023-07-13T14:54:22;1.65;;;1.55;;
17510;SDS011;8873;48.818;9.422;2023-07-13T14:57:12;2.40;;;1.65;;
17510;SDS011;8873;48.818;9.422;2023-07-13T14:59:39;2.00;;;1.83;;
17510;SDS011;8873;48.818;9.422;2023-07-13T15:02:14;1.50;;;1.40;;
17510;SDS011;8873;48.818;9.422;2023-07-13T15:04:43;2.22;;;1.50;;
17510;SDS011;8873;48.818;9.422;2023-07-13T15:07:11;2.28;;;1.60;;
17510;SDS011;8873;48.818;9.422;2023-07-13T15:09:39;1.17;;;1.17;;
17510;SDS011;8873;48.818;9.422;2023-07-13T15:12:08;2.25;;;1.50;;
17510;SDS011;8873;48.818;9.422;2023-07-13T15:14:36;1.77;;;1.70;;
17510;SDS011;8873;48.818;9.422;2023-07-13T15:17:04;2.60;;;1.40;;
17510;SDS011;8873;48.818;9.422;2023-07-13T15:19:32;1.50;;;1.50;;
17510;SDS011;8873;48.818;9.422;2023-07-13T15:22:01;1.63;;;1.38;;
17510;SDS011;8873;48.818;9.422;2023-07-13T15:24:29;3.40;;;1.60;;
17510;SDS011;8873;48.818;9.422;2023-07-13T15:26:59;2.40;;;1.60;;